Portada
METAR-TAF:

METAR-TAF

Aeropuertos :

Aeropuerto de Almería

Almería, España

latitud: 36-51N, longitud: 002-23W, altitud: 15 m

Observación

El informe se hizo hace 12 minutos, a las 01:30 UTC
Viento 4 kt del norte-noreste
Temperatura 18°C
Humedad 68%
Presión 1015 hPa
Visibilidad 10 km o más

METAR: LEAM 230130Z AUTO 03004KT 9999 NCD 18/12 Q1015

Hora: 03:42 (01:42 UTC)

Pronóstico

El informe se hizo hace 5 horas y 42 minutos, a las 20:00 UTC
Pronóstico válido del 22 a las 21 UTC al 23 a las 21 UTC
Viento 3 kt con dirección variable
Visibilidad 10 km o más
sin nubes por debajo de 1500 m y sin presencia de cumulonimbus.
Evolucionando progresivamente
del 23 a las 10 UTC al 23 a las 12 UTC
Viento 10 kt del este-noreste

TAF: LEAM 222000Z 2221/2321 VRB03KT CAVOK TX30/2314Z TN15/2304Z BECMG 2310/2312 07010KT

Observaciones y pronósticos meteorológicos de más de 4000 aeropuertos (mensajes METAR y TAF).

Los puntos amarillos y rojos representan las estaciones disponibles.

Ponga el ratón en el punto deseado para ver el nombre de la estación.

Haga clic para ver las observaciones y los pronósticos meteorológicos.

Para cambiar el mapa : haga clic en los botones verdes con una cruz de color negro para hacer un zoom, en el botón verde con un guión para alejar o en las flechas verdes para mapas adyacentes.


METAR-TAF: